To NAV CANADA Home Page Login to a new session Search on AWWS site Feedback and Comments Disclaimer Vers la page française équivalente Tips FAQ What's new on the site To the Forecasts and Observations / NOTAM section To "File a Flight Plan" website Publications and other links Update of the User's profile FIC Telephone Numbers My Weather Data Folder Route Weather Data Regional Weather Data Local Weather Data To the Forecasts and Observations / NOTAM section
Request Generated 02/23/2017 at 20:47:41 UTC . Weather information available at that time is displayed.

METAR/TAF

FREDERICTON INTL/NB    (show WxCam)

METAR CYFC 232000Z AUTO 17012KT 9SM BKN090 09/02 A2970 RMK SLP061=
METAR CYFC 231900Z AUTO 17007KT 9SM SCT085 09/02 A2972 RMK SLP065=
METAR CYFC 231800Z AUTO 18013G21KT 9SM OVC080 09/01 A2973 RMK SLP071=

TAF CYFC 231738Z 2318/2406 20010G20KT P6SM BKN070
FM232300 18012KT P6SM FEW020 SCT070 TEMPO 2323/2404 BKN020
FM240400 21010KT P6SM BKN025 TEMPO 2404/2406 SCT008 BKN020
RMK FCST BASED ON AUTO OBS. NXT FCST BY 240000Z=
Your time UTC time
Weather data provided by Environment Canada and NAV CANADA